Time;durP1;ratioP1;P1;durP2;ratioP2;P2;SDS_P1;SDS_P2;PMS_P1;PMS_P2;Temp;Humidity;BMP_temperature;BMP_pressure;BME280_temperature;BME280_humidity;BME280_pressure;Samples;Min_cycle;Max_cycle;Signal;HPM_P1;HPM_P2
2022/01/30 00:00:17;;;;;;;11.38;7.68;;;;;;;4.47;51.79;98174.28;3363621;29;20521;-76
2022/01/30 00:01:57;;;;;;;14.43;7.88;;;;;;;4.43;51.78;98174.88;3363389;29;20430;-75
2022/01/30 00:03:38;;;;;;;14.02;8.00;;;;;;;4.37;51.83;98174.63;3362331;29;20036;-79
2022/01/30 00:05:19;;;;;;;12.23;6.78;;;;;;;4.32;51.76;98174.38;3365289;29;20041;-76
2022/01/30 00:06:59;;;;;;;13.80;7.70;;;;;;;4.31;51.83;98172.78;3366003;29;20068;-76
2022/01/30 00:08:40;;;;;;;11.55;7.47;;;;;;;4.30;52.10;98165.03;3364864;29;20358;-76
2022/01/30 00:10:21;;;;;;;14.05;8.20;;;;;;;4.31;51.65;98166.66;3365153;29;20144;-76
2022/01/30 00:12:04;;;;;;;12.73;7.10;;;;;;;4.32;51.89;98163.84;3365172;29;20052;-76
2022/01/30 00:13:45;;;;;;;12.93;7.28;;;;;;;4.34;51.81;98161.84;3363941;29;20056;-74
2022/01/30 00:17:23;;;;;;;12.52;7.25;;;;;;;4.41;51.94;98168.97;3381407;29;20029;-74
2022/01/30 00:19:29;;;;;;;12.60;7.55;;;;;;;4.41;51.90;98158.41;3381210;29;20036;-74
2022/01/30 00:21:33;;;;;;;11.30;6.30;;;;;;;4.43;51.84;98162.50;3380861;29;20055;-76
2022/01/30 00:23:23;;;;;;;9.23;7.55;;;;;;;4.43;51.79;98151.94;3379027;29;20496;-76
2022/01/30 00:25:12;;;;;;;13.75;6.53;;;;;;;4.44;51.75;98148.31;3366431;29;20224;-79
2022/01/30 00:26:53;;;;;;;11.13;6.75;;;;;;;4.45;51.66;98146.47;3365549;29;20112;-77
2022/01/30 00:28:34;;;;;;;8.98;6.38;;;;;;;4.44;51.82;98139.56;3364514;29;20044;-75
2022/01/30 00:30:16;;;;;;;10.35;6.65;;;;;;;4.42;51.69;98144.25;3362080;29;20048;-76
2022/01/30 00:31:56;;;;;;;;;;;;;;;4.51;51.64;98138.59;3352185;29;20144;-73
2022/01/30 00:33:37;;;;;;;10.27;5.78;;;;;;;4.45;51.40;98144.66;3361753;29;20368;-75
2022/01/30 00:35:18;;;;;;;12.20;7.15;;;;;;;4.45;51.68;98138.56;3364654;29;20049;-77
2022/01/30 00:37:01;;;;;;;10.05;6.13;;;;;;;4.46;51.63;98134.91;3364882;29;20576;-76
2022/01/30 00:38:42;;;;;;;10.20;5.75;;;;;;;4.44;51.65;98135.13;3364807;29;20148;-74
2022/01/30 00:40:22;;;;;;;9.05;5.68;;;;;;;4.46;51.47;98134.91;3363858;29;20041;-74
2022/01/30 00:42:03;;;;;;;8.95;5.43;;;;;;;4.44;51.43;98126.38;3363930;29;20049;-77
2022/01/30 00:43:44;;;;;;;6.65;5.00;;;;;;;4.45;51.57;98117.47;3351005;29;20053;-79
2022/01/30 00:45:25;;;;;;;6.47;4.78;;;;;;;4.46;51.33;98105.91;3362139;29;20043;-77
2022/01/30 00:47:08;;;;;;;8.77;4.82;;;;;;;4.44;51.27;98098.19;3365030;29;20044;-76
2022/01/30 00:48:49;;;;;;;6.75;4.10;;;;;;;4.44;50.91;98094.72;3363867;29;20551;-77
2022/01/30 00:50:29;;;;;;;6.50;4.68;;;;;;;4.43;51.16;98093.09;3353579;29;20057;-77
2022/01/30 00:52:10;;;;;;;6.07;4.03;;;;;;;4.38;50.97;98081.28;3358753;29;20080;-77
2022/01/30 00:53:51;;;;;;;5.85;3.88;;;;;;;4.41;50.94;98084.56;3365061;29;20045;-79
2022/01/30 00:55:32;;;;;;;8.70;4.35;;;;;;;4.39;50.76;98076.88;3364794;29;20053;-77
2022/01/30 00:57:12;;;;;;;5.15;4.22;;;;;;;4.37;50.88;98074.41;3364745;29;20077;-75
2022/01/30 00:58:54;;;;;;;5.53;4.17;;;;;;;4.40;50.64;98069.75;3364312;29;20052;-78
2022/01/30 01:00:35;;;;;;;4.47;3.03;;;;;;;4.42;50.68;98071.19;3364752;29;20381;-76
2022/01/30 01:02:16;;;;;;;4.20;3.03;;;;;;;4.43;50.61;98079.91;3364671;29;20076;-77
2022/01/30 01:03:59;;;;;;;5.28;3.00;;;;;;;4.38;50.43;98064.66;3364504;29;20508;-80
2022/01/30 01:05:40;;;;;;;3.95;2.95;;;;;;;4.36;50.47;98067.50;3365152;29;20395;-76
2022/01/30 01:07:23;;;;;;;4.25;3.35;;;;;;;4.34;50.44;98072.16;3351083;29;20048;-76
2022/01/30 01:09:05;;;;;;;4.57;3.08;;;;;;;4.33;50.46;98056.53;3361519;29;20049;-76
2022/01/30 01:10:52;;;;;;;3.78;2.90;;;;;;;4.36;50.37;98062.25;3348918;29;20138;-74
2022/01/30 01:24:18;;;;;;;2.95;2.72;;;;;;;4.43;50.24;98051.72;3363019;29;20110;-78
2022/01/30 01:26:00;;;;;;;3.67;2.45;;;;;;;4.40;50.26;98041.56;3360232;29;21117;-76
2022/01/30 01:27:41;;;;;;;4.75;3.47;;;;;;;4.38;50.20;98038.28;3363325;29;20045;-75
2022/01/30 01:29:22;;;;;;;3.55;2.10;;;;;;;4.36;49.74;98035.03;3363345;29;20437;-75
2022/01/30 01:31:05;;;;;;;3.42;2.40;;;;;;;4.34;50.16;98029.16;3363303;29;20053;-76
2022/01/30 01:32:46;;;;;;;4.63;3.05;;;;;;;4.35;50.16;98031.59;3361259;29;20041;-74
2022/01/30 01:34:35;;;;;;;2.85;2.00;;;;;;;4.36;50.10;98019.19;3364097;29;20072;-75
2022/01/30 01:36:16;;;;;;;3.55;2.70;;;;;;;4.41;50.02;98026.53;3363222;29;20104;-75
2022/01/30 01:37:57;;;;;;;3.65;2.15;;;;;;;4.40;50.07;98024.91;3363468;29;20045;-75
2022/01/30 01:39:38;;;;;;;2.28;2.08;;;;;;;4.42;49.98;98029.00;3350550;29;20097;-74
2022/01/30 01:41:21;;;;;;;4.38;2.22;;;;;;;4.38;49.88;98019.81;3370912;29;20112;-74
2022/01/30 01:43:02;;;;;;;2.20;2.00;;;;;;;4.36;49.87;98017.41;3350380;29;20137;-74
2022/01/30 01:44:50;;;;;;;2.55;2.17;;;;;;;4.32;49.99;98013.53;3362099;29;20051;-76
2022/01/30 01:46:35;;;;;;;2.95;1.98;;;;;;;4.30;49.91;98006.81;3363337;29;20481;-74
2022/01/30 01:48:16;;;;;;;4.43;2.95;;;;;;;4.29;49.73;98013.09;3348027;29;20517;-75
2022/01/30 01:49:57;;;;;;;3.58;2.75;;;;;;;4.24;49.96;98003.13;3361440;29;20055;-73
2022/01/30 01:51:38;;;;;;;3.58;2.42;;;;;;;4.22;49.73;97997.25;3363107;29;20460;-74
2022/01/30 01:53:24;;;;;;;3.10;2.40;;;;;;;4.21;49.67;97998.25;3360244;29;20053;-75
2022/01/30 01:55:05;;;;;;;3.55;2.55;;;;;;;4.19;49.74;98007.38;3363978;29;20044;-74
2022/01/30 01:56:46;;;;;;;4.35;3.45;;;;;;;4.14;49.53;98000.84;3363112;29;20052;-76
2022/01/30 01:58:49;;;;;;;2.97;2.67;;;;;;;4.08;49.72;97996.38;3363239;29;20040;-75
2022/01/30 02:01:01;;;;;;;3.13;2.40;;;;;;;4.07;49.55;97992.09;3359260;29;20075;-76
2022/01/30 02:02:42;;;;;;;3.08;1.95;;;;;;;4.05;49.57;97995.94;3364138;29;20093;-74
2022/01/30 02:04:22;;;;;;;3.70;2.70;;;;;;;4.05;49.80;97990.66;3363886;29;20048;-74
2022/01/30 02:06:07;;;;;;;2.28;1.90;;;;;;;4.02;49.63;97988.41;3362813;29;20092;-74
2022/01/30 02:09:36;;;;;;;2.63;1.90;;;;;;;3.96;49.65;97986.56;3363268;29;20528;-75
2022/01/30 02:11:39;;;;;;;2.45;2.00;;;;;;;3.98;49.61;97985.38;3360636;29;20044;-75
2022/01/30 02:25:28;;;;;;;3.50;3.05;;;;;;;3.99;49.51;97959.81;3363113;29;20100;-76
2022/01/30 02:27:14;;;;;;;3.20;2.05;;;;;;;4.02;49.58;97949.69;3363050;29;20049;-75
2022/01/30 02:28:55;;;;;;;3.65;1.95;;;;;;;4.02;49.52;97943.59;3363517;29;20060;-76
2022/01/30 02:30:41;;;;;;;3.30;2.33;;;;;;;4.01;49.56;97942.00;3363172;29;20044;-75
2022/01/30 02:32:22;;;;;;;2.70;2.50;;;;;;;4.00;49.53;97941.19;3351921;29;20403;-76
2022/01/30 02:34:03;;;;;;;2.70;1.75;;;;;;;3.98;49.61;97937.13;3365550;29;20051;-77
2022/01/30 02:35:43;;;;;;;3.10;2.03;;;;;;;3.97;49.56;97935.47;3369085;29;20112;-76
2022/01/30 02:37:24;;;;;;;3.13;2.75;;;;;;;3.92;49.55;97942.16;3368678;29;20097;-75
2022/01/30 02:39:05;;;;;;;3.60;2.10;;;;;;;3.83;49.45;97929.31;3369815;29;20045;-77
2022/01/30 02:40:48;;;;;;;2.10;1.85;;;;;;;3.81;49.57;97933.97;3368553;29;20056;-78
2022/01/30 02:42:31;;;;;;;2.58;1.90;;;;;;;3.80;49.61;97925.25;3368744;29;20077;-77
2022/01/30 02:46:21;;;;;;;2.78;1.65;;;;;;;3.80;49.59;97927.09;3355024;29;20438;-74
2022/01/30 02:53:39;;;;;;;2.25;1.80;;;;;;;3.67;49.54;97919.94;3364571;29;20128;-76
2022/01/30 02:55:20;;;;;;;3.92;2.50;;;;;;;3.64;49.16;97915.03;3363920;29;20053;-75
2022/01/30 02:57:01;;;;;;;2.97;1.90;;;;;;;3.62;49.48;97909.16;3362222;29;20052;-75
2022/01/30 02:58:41;;;;;;;4.32;2.20;;;;;;;3.60;49.65;97913.78;3349409;29;20506;-75
2022/01/30 03:00:22;;;;;;;3.25;2.17;;;;;;;3.61;49.57;97905.69;3359736;29;20151;-75
2022/01/30 03:02:05;;;;;;;2.85;2.03;;;;;;;3.63;49.64;97913.41;3364680;29;20052;-75
2022/01/30 03:03:45;;;;;;;2.25;1.80;;;;;;;3.64;49.55;97909.75;3364322;29;20041;-76
2022/01/30 03:05:26;;;;;;;2.35;2.10;;;;;;;3.65;49.60;97906.13;3363371;29;20132;-74
2022/01/30 03:07:07;;;;;;;2.67;2.20;;;;;;;3.66;49.61;97902.47;3362175;29;20060;-74
2022/01/30 03:08:57;;;;;;;3.22;2.03;;;;;;;3.70;49.88;97904.53;3349432;29;20086;-75
2022/01/30 03:10:37;;;;;;;1.70;1.60;;;;;;;3.71;49.73;97911.41;3357543;29;20080;-74
2022/01/30 03:12:18;;;;;;;2.15;1.80;;;;;;;3.69;49.65;97910.81;3359662;29;20045;-76
2022/01/30 03:14:00;;;;;;;5.90;1.98;;;;;;;3.66;49.75;97913.00;3359459;29;20060;-76
2022/01/30 03:15:40;;;;;;;3.72;2.10;;;;;;;3.62;49.49;97906.53;3362910;29;20069;-77
2022/01/30 03:17:21;;;;;;;2.03;1.80;;;;;;;3.56;49.73;97896.75;3362121;29;20069;-76
2022/01/30 03:19:02;;;;;;;6.07;3.25;;;;;;;3.52;49.81;97898.97;3359117;29;20421;-77
2022/01/30 03:20:43;;;;;;;3.55;2.25;;;;;;;3.53;49.94;97897.13;3363171;29;20504;-74
2022/01/30 03:22:24;;;;;;;1.88;1.60;;;;;;;3.55;49.97;97895.13;3361817;29;20131;-76
2022/01/30 03:24:05;;;;;;;2.58;2.13;;;;;;;3.56;49.88;97896.75;3359471;29;20089;-76
2022/01/30 03:25:48;;;;;;;2.20;2.00;;;;;;;3.53;49.93;97886.59;3359744;29;20072;-77
2022/01/30 03:27:36;;;;;;;3.00;2.30;;;;;;;3.48;49.87;97892.44;3361945;29;20063;-75
2022/01/30 03:29:18;;;;;;;4.00;2.33;;;;;;;3.48;50.08;97895.91;3361878;29;20049;-75
2022/01/30 03:31:05;;;;;;;4.80;2.00;;;;;;;3.47;50.09;97889.00;3359522;29;20162;-76
2022/01/30 03:32:51;;;;;;;4.05;2.28;;;;;;;3.42;50.17;97886.13;3360700;29;20053;-78
2022/01/30 03:34:32;;;;;;;3.10;2.33;;;;;;;3.38;50.36;97884.06;3358988;29;20411;-76
2022/01/30 03:36:13;;;;;;;4.13;2.60;;;;;;;3.33;50.31;97878.56;3359760;29;20041;-78
2022/01/30 03:37:56;;;;;;;3.67;2.38;;;;;;;3.33;50.53;97871.50;3349141;29;20390;-74
2022/01/30 03:39:37;;;;;;;5.75;2.08;;;;;;;3.33;50.39;97871.50;3356605;29;20576;-76
2022/01/30 03:41:17;;;;;;;5.38;2.30;;;;;;;3.34;50.55;97883.66;3375003;29;20040;-76
2022/01/30 03:42:58;;;;;;;2.70;2.17;;;;;;;3.34;50.77;97865.22;3361752;29;20148;-75
2022/01/30 03:44:39;;;;;;;4.28;2.63;;;;;;;3.35;50.73;97864.22;3361549;29;20132;-74
2022/01/30 03:46:21;;;;;;;6.72;2.80;;;;;;;3.37;50.59;97856.94;3362140;29;20075;-77
2022/01/30 03:48:02;;;;;;;7.25;2.88;;;;;;;3.41;50.77;97866.09;3362250;29;20057;-75
2022/01/30 03:50:15;;;;;;;3.22;1.90;;;;;;;3.47;50.54;97870.56;3358693;29;20113;-74
2022/01/30 03:51:56;;;;;;;3.47;2.47;;;;;;;3.50;50.60;97850.94;3348840;29;20451;-75
2022/01/30 03:53:44;;;;;;;2.83;2.40;;;;;;;3.47;50.64;97849.50;3358664;29;20543;-76
2022/01/30 03:55:25;;;;;;;2.30;1.73;;;;;;;3.43;50.48;97845.66;3359296;29;20049;-75
2022/01/30 03:57:06;;;;;;;4.20;2.90;;;;;;;3.41;50.56;97842.38;3359163;29;20045;-79
2022/01/30 03:58:49;;;;;;;5.18;2.78;;;;;;;3.40;50.81;97829.41;3359575;29;20049;-76
2022/01/30 04:00:31;;;;;;;3.35;2.50;;;;;;;3.43;50.66;97829.84;3359219;29;20136;-77
2022/01/30 04:02:16;;;;;;;3.83;2.22;;;;;;;3.39;50.70;97820.69;3359443;29;20132;-78
2022/01/30 04:03:58;;;;;;;4.50;2.60;;;;;;;3.37;50.59;97824.53;3361631;29;20529;-76
2022/01/30 04:05:40;;;;;;;5.65;3.38;;;;;;;3.37;50.83;97830.59;3361650;29;20053;-74
2022/01/30 04:07:22;;;;;;;3.15;2.30;;;;;;;3.39;50.84;97822.53;3361741;29;20052;-73
2022/01/30 04:09:27;;;;;;;3.22;2.72;;;;;;;3.37;50.51;97817.44;3361117;29;20108;-76
2022/01/30 04:11:31;;;;;;;3.15;2.85;;;;;;;3.46;50.81;97816.28;3359728;29;20061;-76
2022/01/30 04:13:29;;;;;;;4.35;2.53;;;;;;;3.50;50.69;97825.41;3361481;29;20056;-76
2022/01/30 04:15:28;;;;;;;3.50;2.40;;;;;;;3.52;50.76;97817.31;3360836;29;20052;-78
2022/01/30 04:17:28;;;;;;;2.17;1.98;;;;;;;3.50;50.59;97814.88;3362794;29;20049;-76
2022/01/30 04:19:23;;;;;;;2.25;2.00;;;;;;;3.50;50.66;97814.88;3361421;29;20529;-74
2022/01/30 04:21:25;;;;;;;2.78;2.30;;;;;;;3.52;50.69;97811.25;3362469;29;20528;-75
2022/01/30 04:23:25;;;;;;;6.88;2.60;;;;;;;3.52;50.60;97816.50;3362299;29;20136;-79
2022/01/30 04:25:24;;;;;;;3.30;2.25;;;;;;;3.53;50.71;97823.41;3362577;29;20127;-79
2022/01/30 04:27:17;;;;;;;2.13;1.70;;;;;;;3.54;50.84;97803.94;3362593;29;20048;-75
2022/01/30 04:29:16;;;;;;;2.45;1.85;;;;;;;3.60;50.92;97809.25;3362738;29;20560;-76
2022/01/30 04:31:15;;;;;;;2.30;1.75;;;;;;;3.64;50.77;97802.59;3362283;29;20053;-77
2022/01/30 04:33:12;;;;;;;2.47;2.05;;;;;;;3.69;50.74;97801.97;3361412;29;20513;-76
2022/01/30 04:35:26;;;;;;;3.22;2.20;;;;;;;3.68;50.62;97800.34;3354698;29;20053;-76
2022/01/30 04:40:44;;;;;;;2.95;2.08;;;;;;;3.66;50.33;97786.56;3360966;29;20064;-74
2022/01/30 05:04:19;;;;;;;5.40;1.88;;;;;;;3.25;50.87;97767.16;3364676;29;20468;-76
2022/01/30 05:06:53;;;;;;;3.67;2.25;;;;;;;3.28;50.77;97768.59;3365745;29;20052;-75
2022/01/30 05:09:12;;;;;;;2.45;2.22;;;;;;;3.34;50.73;97773.06;3340982;29;21143;-77
2022/01/30 05:11:11;;;;;;;3.60;2.53;;;;;;;3.35;50.74;97764.16;3340377;29;20533;-76
2022/01/30 05:13:16;;;;;;;3.78;2.25;;;;;;;3.37;50.81;97764.78;3338996;29;20418;-78
2022/01/30 05:15:08;;;;;;;1.75;1.60;;;;;;;3.43;50.91;97761.38;3321115;29;20066;-76
2022/01/30 05:16:59;;;;;;;6.70;2.72;;;;;;;3.49;51.07;97775.56;3324097;29;20066;-76
2022/01/30 05:19:01;;;;;;;3.13;2.30;;;;;;;3.45;51.00;97753.28;3324393;29;20085;-79
2022/01/30 05:20:56;;;;;;;4.00;1.90;;;;;;;3.44;50.95;97763.00;3324609;29;20066;-77
2022/01/30 05:23:03;;;;;;;1.63;1.52;;;;;;;3.46;50.92;97766.25;3324507;29;20086;-78
2022/01/30 05:24:50;;;;;;;1.73;1.63;;;;;;;3.48;51.31;97753.72;3324488;29;20058;-73
2022/01/30 05:26:57;;;;;;;1.77;1.23;;;;;;;3.52;51.09;97755.94;3323241;29;20148;-76
2022/01/30 05:28:38;;;;;;;2.03;1.67;;;;;;;3.50;50.95;97751.66;3324009;29;20042;-75
2022/01/30 05:30:43;;;;;;;3.13;1.92;;;;;;;3.50;51.04;97758.75;3324557;29;20058;-73
2022/01/30 05:32:33;;;;;;;2.45;1.90;;;;;;;3.48;50.88;97758.97;3324482;29;20054;-76
2022/01/30 05:34:33;;;;;;;2.10;1.60;;;;;;;3.49;50.82;97743.97;3324381;29;20058;-76
2022/01/30 05:36:32;;;;;;;1.75;1.63;;;;;;;3.50;50.94;97735.06;3311963;29;20051;-75
2022/01/30 05:38:32;;;;;;;2.33;1.52;;;;;;;3.49;50.98;97736.88;3324372;29;20051;-74
2022/01/30 05:40:34;;;;;;;1.55;1.45;;;;;;;3.49;51.05;97744.78;3347924;29;20060;-77
2022/01/30 05:42:21;;;;;;;1.98;1.80;;;;;;;3.48;50.94;97737.91;3364181;29;20045;-76
2022/01/30 05:44:12;;;;;;;2.63;2.25;;;;;;;3.50;51.14;97745.59;3362441;29;20048;-77
2022/01/30 05:46:16;;;;;;;1.83;1.58;;;;;;;3.50;50.95;97735.88;3363716;29;20412;-75
2022/01/30 05:48:09;;;;;;;2.22;1.42;;;;;;;3.51;51.01;97736.66;3363956;29;20532;-76
2022/01/30 05:50:10;;;;;;;1.38;1.27;;;;;;;3.54;50.99;97740.72;3362834;29;20053;-74
2022/01/30 05:52:11;;;;;;;1.45;1.25;;;;;;;3.59;50.97;97738.31;3363601;29;20056;-75
2022/01/30 05:54:23;;;;;;;1.75;1.55;;;;;;;3.57;50.85;97745.63;3360163;29;20219;-74
2022/01/30 05:56:05;;;;;;;1.40;1.40;;;;;;;3.41;50.70;97725.72;3362991;29;20059;-77
2022/01/30 05:57:47;;;;;;;2.60;1.67;;;;;;;3.38;50.76;97726.94;3360412;29;20049;-74
2022/01/30 05:59:33;;;;;;;2.38;1.63;;;;;;;3.33;50.86;97733.75;3362657;29;20053;-77
2022/01/30 06:01:19;;;;;;;3.03;2.05;;;;;;;3.33;50.81;97734.59;3349892;29;20045;-76
2022/01/30 06:03:00;;;;;;;1.70;1.60;;;;;;;3.31;50.94;97730.53;3358052;29;20412;-78
2022/01/30 06:04:41;;;;;;;2.00;1.77;;;;;;;3.26;50.76;97726.66;3360137;29;20048;-75
2022/01/30 06:06:21;;;;;;;3.10;1.52;;;;;;;3.21;50.79;97733.53;3363136;29;20100;-77
2022/01/30 06:08:12;;;;;;;1.30;1.20;;;;;;;3.21;50.96;97720.38;3352840;29;20141;-76
2022/01/30 06:09:52;;;;;;;2.88;1.73;;;;;;;3.20;50.97;97729.25;3362588;29;20056;-76
2022/01/30 06:11:33;;;;;;;3.35;1.70;;;;;;;3.23;50.91;97723.63;3363043;29;20049;-77
2022/01/30 06:13:16;;;;;;;2.47;1.65;;;;;;;3.30;51.24;97713.09;3360273;29;20416;-76
2022/01/30 06:14:58;;;;;;;2.20;1.45;;;;;;;3.37;51.40;97724.47;3362053;29;20060;-76
2022/01/30 06:16:39;;;;;;;1.33;1.10;;;;;;;3.40;50.94;97717.00;3363211;29;20053;-76
2022/01/30 06:18:37;;;;;;;1.10;0.88;;;;;;;3.37;50.93;97709.50;3362517;29;20044;-76
2022/01/30 06:20:18;;;;;;;2.17;1.20;;;;;;;3.30;50.85;97706.00;3362630;29;20041;-75
2022/01/30 06:22:38;;;;;;;1.10;1.00;;;;;;;3.23;50.73;97708.63;3348962;29;20537;-76
2022/01/30 06:24:37;;;;;;;1.83;1.60;;;;;;;3.17;50.77;97734.91;3348414;29;20069;-77
2022/01/30 06:26:21;;;;;;;1.15;1.05;;;;;;;3.04;50.94;97707.53;3349229;29;20186;-75
2022/01/30 06:28:39;;;;;;;1.05;0.90;;;;;;;3.02;50.94;97717.47;3348764;29;20049;-74
2022/01/30 06:30:26;;;;;;;1.17;1.08;;;;;;;2.98;50.96;97710.13;3349015;29;20075;-75
2022/01/30 06:32:25;;;;;;;1.90;1.50;;;;;;;2.96;51.01;97706.88;3348875;29;20438;-75
2022/01/30 06:34:26;;;;;;;1.50;1.40;;;;;;;2.97;51.21;97709.34;3348673;29;20049;-76
2022/01/30 06:36:36;;;;;;;1.27;1.17;;;;;;;2.99;51.13;97717.81;3324004;29;20119;-74
2022/01/30 06:38:37;;;;;;;4.57;1.23;;;;;;;2.97;51.24;97714.59;3329504;29;20573;-74
2022/01/30 06:40:48;;;;;;;1.70;1.55;;;;;;;3.01;51.51;97715.81;3349419;29;20049;-77
2022/01/30 06:43:01;;;;;;;1.90;1.48;;;;;;;3.11;51.50;97723.34;3349111;29;20053;-76
2022/01/30 06:45:00;;;;;;;3.60;1.30;;;;;;;3.18;51.75;97718.94;3348744;29;20045;-75
2022/01/30 06:47:00;;;;;;;1.50;1.33;;;;;;;3.28;52.13;97710.69;3348829;29;20057;-75
2022/01/30 06:49:00;;;;;;;2.90;1.30;;;;;;;3.33;52.30;97715.34;3348966;29;20493;-75
2022/01/30 06:51:17;;;;;;;1.42;1.30;;;;;;;3.33;52.21;97715.34;3350986;29;20056;-74
2022/01/30 06:53:27;;;;;;;1.38;1.27;;;;;;;3.38;52.44;97712.94;3322680;29;20058;-75
2022/01/30 06:55:26;;;;;;;1.42;1.15;;;;;;;3.41;52.52;97709.91;3360851;29;20084;-75
2022/01/30 06:57:44;;;;;;;1.40;1.23;;;;;;;3.47;52.26;97712.56;3348017;29;20089;-74
2022/01/30 06:59:42;;;;;;;1.23;1.02;;;;;;;3.46;52.32;97705.69;3354872;29;20190;-74
2022/01/30 07:01:42;;;;;;;4.53;1.80;;;;;;;3.46;52.35;97708.31;3362751;29;20045;-77
2022/01/30 07:03:41;;;;;;;1.48;1.27;;;;;;;3.46;52.36;97699.59;3361757;29;20198;-77
2022/01/30 07:05:36;;;;;;;3.80;1.40;;;;;;;3.52;52.65;97706.72;3361661;29;20401;-76
2022/01/30 07:07:25;;;;;;;1.85;1.23;;;;;;;3.55;52.69;97708.13;3362023;29;20041;-74
2022/01/30 07:09:06;;;;;;;3.92;1.13;;;;;;;3.58;52.70;97710.38;3362847;29;20083;-73
2022/01/30 07:10:47;;;;;;;1.17;1.08;;;;;;;3.58;52.61;97708.53;3362805;29;20593;-73
2022/01/30 07:12:27;;;;;;;5.30;1.30;;;;;;;3.60;52.51;97708.34;3362734;29;20092;-75
2022/01/30 07:14:08;;;;;;;2.47;1.13;;;;;;;3.56;52.42;97700.00;3362579;29;20485;-77
2022/01/30 07:15:49;;;;;;;1.70;1.33;;;;;;;3.57;52.54;97698.22;3361796;29;20052;-77
2022/01/30 07:17:29;;;;;;;2.47;1.52;;;;;;;3.60;52.94;97688.09;3362289;29;20041;-77
2022/01/30 07:19:10;;;;;;;14.90;1.35;;;;;;;3.68;53.70;97706.34;3361631;29;20071;-77
2022/01/30 07:20:51;;;;;;;3.28;0.93;;;;;;;3.75;53.48;97706.34;3362545;29;20049;-76
2022/01/30 07:22:31;;;;;;;1.02;0.85;;;;;;;3.78;53.25;97705.16;3362665;29;20052;-78
2022/01/30 07:24:12;;;;;;;1.52;0.88;;;;;;;3.76;52.90;97691.34;3361569;29;20128;-77
2022/01/30 07:25:53;;;;;;;1.50;1.17;;;;;;;3.77;52.55;97698.22;3361503;29;20425;-77
2022/01/30 07:27:37;;;;;;;3.03;2.05;;;;;;;3.75;52.28;97705.56;3360381;29;20033;-74
2022/01/30 07:29:18;;;;;;;6.93;1.20;;;;;;;3.73;52.18;97697.84;3357412;29;20037;-78
2022/01/30 07:31:00;;;;;;;3.40;1.63;;;;;;;3.72;52.11;97698.84;3347914;29;20041;-75
2022/01/30 07:32:42;;;;;;;1.55;1.40;;;;;;;3.71;52.10;97699.84;3353837;29;20038;-76
2022/01/30 07:34:22;;;;;;;3.50;1.00;;;;;;;3.67;52.16;97703.91;3359838;29;20103;-75
2022/01/30 07:36:03;;;;;;;4.05;1.50;;;;;;;3.61;51.90;97694.16;3354426;29;20037;-75
2022/01/30 07:37:44;;;;;;;2.65;1.35;;;;;;;3.60;52.01;97698.63;3361853;29;20420;-74
2022/01/30 07:39:29;;;;;;;2.95;1.30;;;;;;;3.57;52.12;97696.38;3362291;29;20045;-77
2022/01/30 07:41:11;;;;;;;1.30;1.20;;;;;;;3.58;51.88;97691.94;3358268;29;20052;-77
2022/01/30 07:42:52;;;;;;;1.40;1.30;;;;;;;3.59;51.76;97690.91;3359478;29;20052;-76
2022/01/30 07:44:34;;;;;;;1.42;1.00;;;;;;;3.58;51.61;97702.47;3359947;29;20153;-76
2022/01/30 07:46:15;;;;;;;2.25;1.17;;;;;;;3.56;51.56;97688.66;3356242;29;20046;-75
2022/01/30 07:47:59;;;;;;;1.58;1.15;;;;;;;3.54;51.97;97680.16;3362526;29;20072;-76
2022/01/30 07:49:40;;;;;;;1.48;1.27;;;;;;;3.60;51.95;97682.00;3373017;29;20049;-77
2022/01/30 07:51:21;;;;;;;2.75;0.90;;;;;;;3.61;51.87;97679.16;3344354;29;20480;-79
2022/01/30 07:53:01;;;;;;;1.95;1.25;;;;;;;3.62;51.71;97693.16;3356962;29;20037;-72
2022/01/30 07:54:42;;;;;;;0.90;0.90;;;;;;;3.59;51.38;97690.91;3360140;29;20037;-74
2022/01/30 07:56:23;;;;;;;3.05;1.17;;;;;;;3.52;51.12;97692.72;3354439;29;20079;-72
2022/01/30 07:58:04;;;;;;;2.30;1.37;;;;;;;3.41;51.05;97681.75;3356668;29;20037;-72
2022/01/30 07:59:45;;;;;;;3.35;1.15;;;;;;;3.33;50.74;97673.22;3357066;29;20125;-75
2022/01/30 08:01:25;;;;;;;1.38;1.23;;;;;;;3.27;50.71;97683.53;3359415;29;20448;-75
2022/01/30 08:03:06;;;;;;;11.48;2.42;;;;;;;3.25;50.86;97684.72;3361621;29;20040;-73
2022/01/30 08:04:47;;;;;;;1.58;1.30;;;;;;;3.22;50.57;97678.03;3362364;29;20049;-73
2022/01/30 08:06:27;;;;;;;1.80;1.20;;;;;;;3.22;50.90;97674.59;3362364;29;20049;-73
2022/01/30 08:08:08;;;;;;;1.50;1.40;;;;;;;3.23;50.45;97666.53;3362238;29;20052;-73
2022/01/30 08:09:49;;;;;;;1.88;1.35;;;;;;;3.26;50.17;97675.84;3362276;29;20112;-73
2022/01/30 08:11:30;;;;;;;3.50;1.50;;;;;;;3.23;50.40;97665.72;3361566;29;20945;-72
2022/01/30 08:13:10;;;;;;;2.38;1.10;;;;;;;3.27;50.12;97661.66;3362430;29;20046;-75
2022/01/30 08:14:51;;;;;;;1.10;1.05;;;;;;;3.28;50.28;97664.09;3360999;29;20132;-73
2022/01/30 08:16:32;;;;;;;2.50;1.33;;;;;;;3.29;49.94;97657.00;3362025;29;20146;-72
2022/01/30 08:18:12;;;;;;;1.58;0.80;;;;;;;3.27;50.01;97673.00;3361647;29;20457;-75
2022/01/30 08:19:53;;;;;;;0.80;0.80;;;;;;;3.24;49.81;97668.13;3362443;29;20041;-71
2022/01/30 08:21:34;;;;;;;1.13;1.02;;;;;;;3.25;49.83;97668.94;3360212;29;20075;-71
2022/01/30 08:23:17;;;;;;;1.30;1.20;;;;;;;3.24;49.77;97672.59;3358628;29;20132;-71
2022/01/30 08:24:58;;;;;;;0.80;0.80;;;;;;;3.23;49.85;97684.13;3361636;29;20107;-73
2022/01/30 08:26:39;;;;;;;1.77;0.88;;;;;;;3.20;49.65;97671.34;3361149;29;20041;-72
2022/01/30 08:28:19;;;;;;;0.77;0.75;;;;;;;3.16;49.24;97678.03;3361393;29;20044;-71
2022/01/30 08:30:00;;;;;;;1.08;0.93;;;;;;;3.10;49.49;97670.91;3362230;29;20063;-72
2022/01/30 08:31:41;;;;;;;1.15;0.98;;;;;;;3.05;49.50;97672.31;3362649;29;20096;-71
2022/01/30 08:33:22;;;;;;;2.15;1.38;;;;;;;3.03;49.44;97682.22;3362212;29;20056;-72
2022/01/30 08:35:04;;;;;;;4.80;1.10;;;;;;;3.00;49.20;97668.66;3362139;29;20537;-72
2022/01/30 08:36:45;;;;;;;1.52;1.00;;;;;;;2.95;49.35;97668.44;3362731;29;20053;-71
2022/01/30 08:38:25;;;;;;;2.33;1.30;;;;;;;2.93;49.33;97671.25;3364848;29;20045;-71
2022/01/30 08:40:10;;;;;;;1.10;1.00;;;;;;;2.93;49.22;97660.72;3364175;29;20045;-71
2022/01/30 08:41:50;;;;;;;1.88;1.73;;;;;;;2.95;49.24;97663.97;3363959;29;20044;-71
2022/01/30 08:43:31;;;;;;;1.50;1.40;;;;;;;2.96;49.10;97662.97;3364502;29;20045;-72
2022/01/30 08:45:13;;;;;;;1.48;1.10;;;;;;;2.94;49.02;97651.00;3364399;29;20053;-71
2022/01/30 08:46:54;;;;;;;2.38;1.10;;;;;;;2.91;49.19;97657.47;3350276;29;20045;-71
2022/01/30 08:48:34;;;;;;;2.08;1.30;;;;;;;2.87;49.03;97650.19;3350534;29;20140;-72
2022/01/30 08:50:16;;;;;;;0.95;0.95;;;;;;;2.83;49.31;97644.50;3352141;29;20053;-72
2022/01/30 08:51:57;;;;;;;1.08;1.00;;;;;;;2.83;49.30;97640.03;3351750;29;20052;-71
2022/01/30 08:53:38;;;;;;;2.03;1.15;;;;;;;2.89;49.31;97648.16;3361818;29;20113;-71
2022/01/30 08:55:20;;;;;;;1.30;0.90;;;;;;;2.93;49.23;97649.41;3365194;29;20136;-71
2022/01/30 08:57:01;;;;;;;1.83;0.95;;;;;;;2.96;49.13;97655.06;3365364;29;20289;-70
2022/01/30 08:58:42;;;;;;;1.25;1.13;;;;;;;3.00;49.21;97663.41;3364702;29;20072;-72
2022/01/30 09:00:22;;;;;;;1.65;1.30;;;;;;;3.01;49.25;97652.66;3364217;29;20504;-71
2022/01/30 09:02:03;;;;;;;3.33;1.30;;;;;;;3.03;49.15;97650.66;3363202;29;20452;-71
2022/01/30 09:03:44;;;;;;;2.22;1.20;;;;;;;3.07;49.17;97651.06;3373214;29;20041;-72
2022/01/30 09:05:25;;;;;;;1.77;1.20;;;;;;;3.14;49.01;97646.63;3363787;29;20049;-71
2022/01/30 09:07:06;;;;;;;1.80;1.10;;;;;;;3.21;49.20;97651.94;3363575;29;20045;-72
2022/01/30 09:08:46;;;;;;;1.02;0.90;;;;;;;3.27;48.91;97640.59;3362723;29;20045;-72
2022/01/30 09:10:27;;;;;;;1.02;0.90;;;;;;;3.31;48.92;97636.56;3364346;29;20045;-73
2022/01/30 09:12:08;;;;;;;3.53;1.17;;;;;;;3.35;48.88;97640.41;3364574;29;20045;-73
2022/01/30 09:13:49;;;;;;;1.23;1.08;;;;;;;3.36;48.54;97633.34;3364486;29;20497;-72
2022/01/30 09:15:30;;;;;;;1.75;1.05;;;;;;;3.34;48.70;97630.91;3364273;29;20233;-71
2022/01/30 09:17:16;;;;;;;2.33;0.98;;;;;;;3.37;48.71;97617.34;3364510;29;20104;-73
2022/01/30 09:18:57;;;;;;;1.17;1.08;;;;;;;3.39;48.63;97635.59;3363638;29;20049;-72
2022/01/30 09:20:40;;;;;;;1.43;1.20;;;;;;;3.41;48.51;97629.09;3364297;29;20159;-72
2022/01/30 09:22:21;;;;;;;2.72;1.17;;;;;;;3.43;48.60;97635.00;3364222;29;20293;-72
2022/01/30 09:24:02;;;;;;;0.85;0.82;;;;;;;3.44;48.47;97628.69;3363039;29;20152;-71
2022/01/30 09:25:43;;;;;;;2.15;1.25;;;;;;;3.46;48.48;97625.88;3363934;29;20067;-71
2022/01/30 09:27:24;;;;;;;4.73;1.27;;;;;;;3.48;48.47;97624.66;3363332;29;20040;-72